Time;durP1;ratioP1;P1;durP2;ratioP2;P2;SDS_P1;SDS_P2;PMS_P1;PMS_P2;Temp;Humidity;BMP_temperature;BMP_pressure;BME280_temperature;BME280_humidity;BME280_pressure;Samples;Min_cycle;Max_cycle;Signal;HPM_P1;HPM_P2
2021/09/25 00:01:45;;;;;;;9.57;6.30;;;;;;;18.04;73.59;100529.34;5050282;28;20125;-79
2021/09/25 00:04:10;;;;;;;7.75;5.50;;;;;;;18.05;74.31;100529.28;5056251;28;20028;-79
2021/09/25 00:06:36;;;;;;;7.95;6.40;;;;;;;18.00;74.06;100535.69;5053661;28;20071;-80
2021/09/25 00:09:01;;;;;;;7.65;5.80;;;;;;;18.04;73.92;100521.31;5055835;28;20037;-79
2021/09/25 00:11:28;;;;;;;7.88;5.93;;;;;;;18.05;73.74;100526.63;5057885;28;20036;-80
2021/09/25 00:13:54;;;;;;;10.00;6.20;;;;;;;18.06;73.69;100525.69;5046165;28;20060;-79
2021/09/25 00:16:20;;;;;;;7.82;6.28;;;;;;;18.08;73.93;100531.84;5050309;28;20530;-79
2021/09/25 00:18:45;;;;;;;6.90;6.05;;;;;;;18.08;73.79;100522.97;5028410;28;20045;-79
2021/09/25 00:21:10;;;;;;;8.68;6.25;;;;;;;18.06;73.61;100525.69;5038706;28;20052;-80
2021/09/25 00:23:36;;;;;;;8.75;6.45;;;;;;;18.03;73.78;100520.47;5048205;28;20044;-79
2021/09/25 00:26:01;;;;;;;8.55;6.50;;;;;;;18.03;74.10;100519.59;5057391;28;20041;-79
2021/09/25 00:28:27;;;;;;;7.80;6.22;;;;;;;18.02;73.59;100520.50;5055209;28;20042;-80
2021/09/25 00:30:52;;;;;;;8.93;6.07;;;;;;;18.02;74.01;100525.84;5056893;28;20044;-78
2021/09/25 00:33:17;;;;;;;14.43;6.40;;;;;;;17.99;74.34;100518.81;5054291;28;20480;-79
2021/09/25 00:35:43;;;;;;;8.00;5.80;;;;;;;17.99;74.15;100523.28;5056959;28;20049;-80
2021/09/25 00:38:08;;;;;;;6.75;5.50;;;;;;;17.95;74.21;100522.53;5037054;28;20041;-79
2021/09/25 00:40:33;;;;;;;9.13;6.45;;;;;;;17.94;74.34;100516.31;5056033;28;20440;-79
2021/09/25 00:42:59;;;;;;;8.40;6.13;;;;;;;17.91;74.42;100512.91;5054682;28;20056;-79
2021/09/25 00:45:26;;;;;;;7.32;6.10;;;;;;;17.85;74.76;100522.00;5055828;28;20044;-79
2021/09/25 00:47:51;;;;;;;7.38;5.95;;;;;;;17.83;74.53;100518.50;5055977;28;20037;-80
2021/09/25 00:50:17;;;;;;;7.70;6.28;;;;;;;17.82;74.85;100511.44;5049246;28;20472;-79
2021/09/25 00:52:42;;;;;;;9.05;6.57;;;;;;;17.85;74.29;100514.00;5048729;28;20044;-79
2021/09/25 00:55:08;;;;;;;7.82;5.85;;;;;;;17.84;74.72;100517.59;5044999;28;20039;-79
2021/09/25 00:57:34;;;;;;;8.00;6.60;;;;;;;17.86;74.61;100517.53;5045783;28;20043;-81
2021/09/25 01:00:00;;;;;;;9.75;6.28;;;;;;;17.85;75.07;100522.00;5036590;28;20037;-80
2021/09/25 01:02:26;;;;;;;7.15;6.18;;;;;;;17.85;75.05;100515.81;5039251;28;20037;-79
2021/09/25 01:04:51;;;;;;;6.88;5.80;;;;;;;17.78;74.97;100522.25;5017461;28;20040;-80
2021/09/25 01:07:17;;;;;;;7.75;6.75;;;;;;;17.80;74.85;100518.63;5036481;28;20032;-79
2021/09/25 01:09:42;;;;;;;8.15;6.53;;;;;;;17.82;74.92;100527.47;5044087;28;20045;-81
2021/09/25 01:12:08;;;;;;;8.07;6.00;;;;;;;17.84;75.05;100530.06;5046365;28;20508;-81
2021/09/25 01:14:34;;;;;;;7.90;6.25;;;;;;;17.84;74.77;100525.63;5043212;28;20079;-81
2021/09/25 01:17:05;;;;;;;10.70;7.32;;;;;;;17.86;74.49;100528.19;5015823;28;20042;-81
2021/09/25 01:19:30;;;;;;;9.13;6.70;;;;;;;17.84;74.54;100528.28;5021670;28;20033;-79
2021/09/25 01:21:55;;;;;;;10.98;7.88;;;;;;;17.82;74.35;100527.47;5035338;28;20037;-79
2021/09/25 01:24:21;;;;;;;8.40;6.95;;;;;;;17.82;74.89;100527.47;5015015;28;20060;-81
2021/09/25 01:26:46;;;;;;;9.35;6.20;;;;;;;17.80;75.18;100523.09;5041288;28;20028;-81
2021/09/25 01:29:12;;;;;;;8.82;5.80;;;;;;;17.77;74.31;100528.53;5043824;28;20037;-79
2021/09/25 01:31:37;;;;;;;11.80;6.70;;;;;;;17.85;74.32;100527.34;5045990;28;20155;-81
2021/09/25 01:34:03;;;;;;;13.15;7.78;;;;;;;17.92;74.27;100528.88;5049068;28;20028;-80
2021/09/25 01:36:29;;;;;;;8.30;6.68;;;;;;;17.90;74.24;100536.06;5032181;28;20057;-80
2021/09/25 01:38:55;;;;;;;7.97;5.72;;;;;;;17.91;74.09;100537.78;5046545;28;20025;-80
2021/09/25 01:41:20;;;;;;;8.23;6.45;;;;;;;17.91;74.07;100528.91;5044305;28;20470;-80
2021/09/25 01:43:45;;;;;;;10.23;7.13;;;;;;;17.84;74.55;100540.72;5043589;28;20407;-81
2021/09/25 01:46:11;;;;;;;8.75;5.40;;;;;;;17.88;74.08;100529.03;5045210;28;20038;-81
2021/09/25 01:48:36;;;;;;;7.75;5.10;;;;;;;17.92;73.78;100539.56;5044694;28;20091;-80
2021/09/25 01:51:02;;;;;;;9.77;6.43;;;;;;;17.92;73.88;100530.63;5018590;28;20041;-81
2021/09/25 01:53:28;;;;;;;8.90;6.90;;;;;;;17.92;73.74;100531.53;5043184;28;20021;-80
2021/09/25 01:55:53;;;;;;;8.85;5.95;;;;;;;17.93;73.95;100535.94;5044079;28;20040;-81
2021/09/25 01:58:18;;;;;;;7.45;5.97;;;;;;;17.94;73.51;100537.66;5041843;28;20038;-80
2021/09/25 02:00:44;;;;;;;7.82;5.20;;;;;;;17.95;73.74;100533.22;5042231;28;20432;-81
2021/09/25 02:03:12;;;;;;;7.28;4.97;;;;;;;17.95;73.67;100542.09;5034710;28;20512;-80
2021/09/25 02:05:37;;;;;;;8.10;5.90;;;;;;;17.94;73.59;100543.00;5043847;28;20045;-80
2021/09/25 02:08:04;;;;;;;7.00;5.22;;;;;;;17.92;73.78;100544.88;5046098;28;20032;-80
2021/09/25 02:10:30;;;;;;;7.57;5.32;;;;;;;17.89;73.73;100550.34;5040942;28;20029;-81
2021/09/25 02:12:56;;;;;;;7.97;4.97;;;;;;;17.82;73.93;100548.81;5007216;28;20431;-79
2021/09/25 02:15:21;;;;;;;6.78;5.07;;;;;;;17.90;73.71;100544.06;5037172;28;20036;-81
2021/09/25 02:17:46;;;;;;;5.97;4.50;;;;;;;17.90;73.22;100544.06;5043380;28;20041;-81
2021/09/25 02:20:12;;;;;;;5.28;4.15;;;;;;;17.88;73.07;100535.22;5044941;28;20037;-82
2021/09/25 02:22:39;;;;;;;6.13;3.75;;;;;;;17.87;73.01;100537.97;5044168;28;20124;-80
2021/09/25 02:25:07;;;;;;;4.95;3.72;;;;;;;17.91;72.95;100531.59;5043594;28;20025;-81
2021/09/25 02:27:32;;;;;;;7.45;4.15;;;;;;;17.88;73.05;100531.69;5041736;28;20499;-82
2021/09/25 02:29:58;;;;;;;6.03;3.50;;;;;;;17.91;72.39;100536.91;5035983;28;20033;-80
2021/09/25 02:32:23;;;;;;;6.93;4.63;;;;;;;17.90;72.09;100536.06;5047074;28;20662;-80
2021/09/25 02:34:49;;;;;;;6.03;4.55;;;;;;;17.92;72.28;100539.56;5043024;28;20385;-81
2021/09/25 02:37:14;;;;;;;7.40;4.05;;;;;;;17.95;71.67;100542.09;5044313;28;20518;-79
2021/09/25 02:39:39;;;;;;;6.68;3.80;;;;;;;17.97;71.54;100542.03;5032410;28;20053;-80
2021/09/25 02:42:05;;;;;;;6.10;3.92;;;;;;;17.92;71.68;100544.00;5044570;28;20128;-81
2021/09/25 02:44:30;;;;;;;6.28;4.18;;;;;;;17.91;71.68;100540.47;5043692;28;20036;-80
2021/09/25 02:46:56;;;;;;;6.25;4.30;;;;;;;17.99;71.59;100545.53;5042581;28;20045;-80
2021/09/25 02:49:22;;;;;;;6.30;4.15;;;;;;;18.03;71.68;100540.97;5043163;28;20029;-81
2021/09/25 02:51:48;;;;;;;6.70;3.53;;;;;;;18.03;71.39;100541.81;5044331;28;20037;-80
2021/09/25 02:54:14;;;;;;;6.05;3.70;;;;;;;18.01;71.18;100545.47;5043104;28;20036;-80
2021/09/25 02:56:39;;;;;;;5.70;3.55;;;;;;;17.98;71.55;100542.91;5043934;28;20403;-81
2021/09/25 02:59:05;;;;;;;6.32;3.55;;;;;;;17.98;71.46;100546.47;5044192;28;20033;-81
2021/09/25 03:01:31;;;;;;;5.35;3.30;;;;;;;17.99;71.36;100552.66;5040137;28;20104;-82
2021/09/25 03:03:57;;;;;;;5.35;3.05;;;;;;;17.94;71.46;100551.03;5044713;28;20037;-81
2021/09/25 03:06:26;;;;;;;10.13;4.25;;;;;;;17.96;71.36;100550.97;5041503;28;20080;-81
2021/09/25 03:08:52;;;;;;;5.40;3.45;;;;;;;17.99;71.09;100555.34;5044381;28;20099;-81
2021/09/25 03:11:18;;;;;;;4.47;3.22;;;;;;;17.96;70.96;100551.84;5042352;28;20025;-81
2021/09/25 03:13:44;;;;;;;5.55;3.00;;;;;;;17.93;71.15;100557.31;5044945;28;20047;-81
2021/09/25 03:16:10;;;;;;;4.65;3.20;;;;;;;17.95;71.12;100560.78;5013749;28;20112;-81
2021/09/25 03:18:35;;;;;;;4.60;3.13;;;;;;;17.96;71.07;100561.66;5040707;28;20060;-79
2021/09/25 03:21:00;;;;;;;4.32;2.40;;;;;;;17.88;71.15;100558.41;5042174;28;20038;-82
2021/09/25 03:23:26;;;;;;;4.05;2.60;;;;;;;17.87;71.09;100562.88;5042114;28;20160;-82
2021/09/25 03:25:51;;;;;;;5.38;2.50;;;;;;;17.88;71.27;100553.91;5017873;28;20079;-82
2021/09/25 03:28:17;;;;;;;5.88;2.88;;;;;;;17.85;71.33;100553.16;5044446;28;20033;-81
2021/09/25 03:30:42;;;;;;;4.53;2.58;;;;;;;17.72;71.65;100558.91;5046912;28;20050;-81
2021/09/25 03:33:07;;;;;;;4.90;2.85;;;;;;;17.71;71.09;100556.28;5046744;28;20044;-80
2021/09/25 03:35:33;;;;;;;7.70;3.05;;;;;;;17.68;71.28;100554.63;5036688;28;20048;-79
2021/09/25 03:38:00;;;;;;;7.28;2.60;;;;;;;17.71;71.52;100562.50;5048065;28;20044;-79
2021/09/25 03:40:26;;;;;;;5.03;3.08;;;;;;;17.74;71.68;100561.53;5045504;28;20504;-81
2021/09/25 03:42:52;;;;;;;4.60;2.55;;;;;;;17.75;71.63;100560.59;5049997;28;20041;-81
2021/09/25 03:45:17;;;;;;;4.53;3.03;;;;;;;17.72;71.24;100558.91;5038848;28;20037;-79
2021/09/25 03:47:43;;;;;;;5.32;3.05;;;;;;;17.71;71.25;100562.50;5049732;28;20040;-79
2021/09/25 03:50:09;;;;;;;4.10;2.50;;;;;;;17.70;71.16;100570.56;5039709;28;20029;-81
2021/09/25 03:52:34;;;;;;;5.60;2.45;;;;;;;17.70;71.68;100570.56;5044609;28;20033;-81
2021/09/25 03:55:00;;;;;;;4.18;2.50;;;;;;;17.69;71.47;100558.16;5045420;28;20048;-80
2021/09/25 03:57:25;;;;;;;5.35;2.75;;;;;;;17.65;71.68;100568.03;5040636;28;20044;-80
2021/09/25 03:59:51;;;;;;;3.97;2.63;;;;;;;17.70;71.32;100566.09;5042280;28;20033;-80
2021/09/25 04:02:16;;;;;;;5.60;2.97;;;;;;;17.71;71.38;100569.63;5046102;28;20037;-80
2021/09/25 04:04:41;;;;;;;5.10;2.88;;;;;;;17.67;71.74;100565.34;5045728;28;20116;-80
2021/09/25 04:07:07;;;;;;;7.70;3.50;;;;;;;17.66;71.76;100575.16;5046408;28;20040;-81
2021/09/25 04:09:32;;;;;;;3.72;2.50;;;;;;;17.69;71.40;100571.50;5046548;28;20052;-81
2021/09/25 04:11:57;;;;;;;6.38;3.13;;;;;;;17.70;71.92;100570.56;5047245;28;20470;-80
2021/09/25 04:14:23;;;;;;;6.57;3.00;;;;;;;17.75;71.42;100568.59;5044489;28;20033;-81
2021/09/25 04:16:49;;;;;;;5.15;2.70;;;;;;;17.72;71.24;100576.72;5047553;28;20041;-80
2021/09/25 04:19:14;;;;;;;4.57;2.47;;;;;;;17.74;71.58;100577.56;5042273;28;20038;-81
2021/09/25 04:21:39;;;;;;;4.30;2.50;;;;;;;17.71;71.57;100569.63;5039860;28;20059;-81
2021/09/25 04:24:05;;;;;;;5.65;2.50;;;;;;;17.67;71.77;100573.34;5043155;28;20037;-81
2021/09/25 04:26:31;;;;;;;4.63;3.10;;;;;;;17.65;71.91;100572.50;5045119;28;20067;-81
2021/09/25 04:28:59;;;;;;;7.75;3.33;;;;;;;17.65;71.48;100568.03;5048047;28;20037;-81
2021/09/25 04:31:25;;;;;;;9.65;4.00;;;;;;;17.68;71.31;100569.72;5046339;28;20037;-79
2021/09/25 04:33:51;;;;;;;5.53;3.00;;;;;;;17.67;71.62;100574.22;5045258;28;20033;-79
2021/09/25 04:36:16;;;;;;;6.43;3.20;;;;;;;17.68;71.58;100570.63;5047852;28;20111;-79
2021/09/25 04:38:41;;;;;;;6.82;3.80;;;;;;;17.62;71.79;100569.97;5046664;28;20029;-81
2021/09/25 04:41:07;;;;;;;4.63;3.08;;;;;;;17.54;71.72;100567.56;5051808;28;20388;-82
2021/09/25 04:43:32;;;;;;;6.43;3.25;;;;;;;17.55;71.84;100571.94;5044746;28;20073;-80
2021/09/25 04:45:58;;;;;;;6.70;3.20;;;;;;;17.57;72.05;100578.13;5048011;28;20391;-81
2021/09/25 04:48:23;;;;;;;5.43;3.60;;;;;;;17.53;71.98;100568.50;5044405;28;20048;-81
2021/09/25 04:50:48;;;;;;;4.32;3.13;;;;;;;17.56;72.06;100575.53;5047363;28;20041;-81
2021/09/25 04:53:14;;;;;;;5.43;3.10;;;;;;;17.53;71.94;100569.34;5043888;28;20037;-80
2021/09/25 04:55:41;;;;;;;8.63;3.35;;;;;;;17.52;72.09;100572.06;5046996;28;20052;-81
2021/09/25 04:58:06;;;;;;;5.35;3.72;;;;;;;17.51;71.94;100581.00;5046773;28;20065;-80
2021/09/25 05:00:33;;;;;;;9.32;3.53;;;;;;;17.49;72.20;100588.19;5048267;28;20085;-80
2021/09/25 05:02:58;;;;;;;5.35;3.17;;;;;;;17.46;72.02;100589.16;5045433;28;20041;-80
2021/09/25 05:05:23;;;;;;;7.70;3.42;;;;;;;17.51;72.06;100589.00;5044621;28;20088;-79
2021/09/25 05:07:49;;;;;;;6.13;3.38;;;;;;;17.51;71.71;100587.22;5044721;28;20036;-80
2021/09/25 05:10:15;;;;;;;6.28;3.08;;;;;;;17.55;71.82;100603.09;5043167;28;20030;-78
2021/09/25 05:12:40;;;;;;;5.78;2.97;;;;;;;17.54;71.53;100596.91;5044815;28;20045;-78
2021/09/25 05:15:06;;;;;;;6.32;3.10;;;;;;;17.57;71.54;100591.47;5043632;28;20139;-80
2021/09/25 05:17:31;;;;;;;6.85;3.00;;;;;;;17.61;71.35;100592.25;5036119;28;20029;-80
2021/09/25 05:19:56;;;;;;;5.00;3.20;;;;;;;17.58;71.22;100601.22;5040127;28;20099;-80
2021/09/25 05:22:22;;;;;;;5.15;2.90;;;;;;;17.57;71.45;100602.13;5041753;28;20072;-79
2021/09/25 05:24:47;;;;;;;5.75;2.92;;;;;;;17.62;71.12;100594.84;5044602;28;20072;-80
2021/09/25 05:27:12;;;;;;;6.13;2.90;;;;;;;17.65;71.09;100599.19;5042501;28;20044;-80
2021/09/25 05:29:38;;;;;;;4.38;2.85;;;;;;;17.68;71.31;100600.00;5035052;28;20159;-80
2021/09/25 05:32:05;;;;;;;5.40;3.00;;;;;;;17.64;70.63;100590.34;5043570;28;20037;-79
2021/09/25 05:34:30;;;;;;;4.57;2.70;;;;;;;17.66;70.63;100590.28;5043245;28;20423;-79
2021/09/25 05:36:57;;;;;;;5.68;3.25;;;;;;;17.66;70.84;100598.31;5043941;28;20048;-80
2021/09/25 05:39:22;;;;;;;5.28;2.90;;;;;;;17.59;70.99;100605.63;5042738;28;20067;-79
2021/09/25 05:41:48;;;;;;;5.35;2.72;;;;;;;17.61;70.86;100603.78;5044331;28;20098;-79
2021/09/25 05:44:13;;;;;;;5.55;2.97;;;;;;;17.68;70.86;100612.44;5041793;28;20497;-79
2021/09/25 05:46:38;;;;;;;9.57;4.03;;;;;;;17.68;70.83;100599.09;5045121;28;20059;-80
2021/09/25 05:49:04;;;;;;;5.38;3.47;;;;;;;17.70;70.31;100605.25;5043603;28;20416;-79
2021/09/25 05:51:29;;;;;;;6.80;3.83;;;;;;;17.70;70.61;100603.44;5044034;28;20044;-80
2021/09/25 05:53:54;;;;;;;7.10;3.58;;;;;;;17.70;70.29;100598.13;5041966;28;20039;-80
2021/09/25 05:56:20;;;;;;;7.18;3.28;;;;;;;17.78;69.90;100600.53;5044162;28;20036;-80
2021/09/25 05:58:45;;;;;;;6.13;3.50;;;;;;;17.74;69.87;100607.78;5042476;28;20039;-80
2021/09/25 06:01:11;;;;;;;5.72;2.80;;;;;;;17.76;70.07;100605.03;5043508;28;20407;-78
2021/09/25 06:03:36;;;;;;;6.97;3.22;;;;;;;17.82;69.90;100607.53;5041647;28;20635;-78
2021/09/25 06:06:01;;;;;;;5.45;2.90;;;;;;;17.83;69.72;100609.28;5041917;28;20041;-79
2021/09/25 06:08:26;;;;;;;4.18;3.08;;;;;;;17.83;69.76;100609.28;5043750;28;20095;-79
2021/09/25 06:10:52;;;;;;;7.90;3.20;;;;;;;17.86;69.44;100613.63;5041511;28;20029;-80
2021/09/25 06:13:17;;;;;;;5.13;3.08;;;;;;;17.91;69.11;100617.03;5044375;28;20116;-79
2021/09/25 06:15:44;;;;;;;4.82;2.85;;;;;;;17.95;69.52;100621.34;5041598;28;20041;-79
2021/09/25 06:18:10;;;;;;;6.53;3.33;;;;;;;18.01;68.99;100622.91;5037308;28;20079;-79
2021/09/25 06:20:36;;;;;;;5.32;3.38;;;;;;;18.00;68.69;100627.41;5034807;28;20037;-80
2021/09/25 06:23:02;;;;;;;5.35;3.10;;;;;;;18.04;69.01;100622.81;5041155;28;20046;-80
2021/09/25 06:25:27;;;;;;;4.97;3.13;;;;;;;18.07;68.38;100622.69;5043614;28;20044;-79
2021/09/25 06:27:53;;;;;;;5.25;3.42;;;;;;;18.06;68.81;100619.16;5008289;28;20033;-80
2021/09/25 06:30:18;;;;;;;6.05;3.40;;;;;;;18.16;68.56;100623.25;5043038;28;20069;-79
2021/09/25 06:32:45;;;;;;;4.68;3.15;;;;;;;18.17;68.07;100629.44;5024907;28;20028;-80
2021/09/25 06:35:11;;;;;;;5.65;3.05;;;;;;;18.18;68.42;100637.41;5042636;28;20044;-79
2021/09/25 06:37:37;;;;;;;4.82;3.22;;;;;;;18.22;68.62;100637.31;5044846;28;20033;-80
2021/09/25 06:40:05;;;;;;;5.18;3.55;;;;;;;18.33;68.42;100635.97;5041543;28;20096;-80
2021/09/25 06:42:30;;;;;;;4.35;3.03;;;;;;;18.35;68.46;100636.78;5043405;28;20063;-79
2021/09/25 06:44:55;;;;;;;4.47;3.30;;;;;;;18.42;68.36;100634.78;5041517;28;20041;-80
2021/09/25 06:47:21;;;;;;;4.55;2.47;;;;;;;18.53;67.68;100643.25;5044254;28;20048;-79
2021/09/25 06:49:46;;;;;;;6.45;3.53;;;;;;;18.54;67.54;100638.78;5040712;28;20030;-79
2021/09/25 06:52:12;;;;;;;5.15;3.42;;;;;;;18.58;67.32;100643.09;5043996;28;20025;-79
2021/09/25 06:54:37;;;;;;;6.13;3.72;;;;;;;18.67;67.70;100642.72;5040670;28;20512;-80
2021/09/25 06:57:04;;;;;;;7.72;4.20;;;;;;;18.72;66.99;100645.25;5044111;28;20079;-78
2021/09/25 06:59:30;;;;;;;7.10;4.18;;;;;;;18.70;67.09;100645.28;5046424;28;20045;-78
2021/09/25 07:01:55;;;;;;;7.75;4.72;;;;;;;18.66;67.40;100642.81;5013002;28;20056;-78
2021/09/25 07:04:20;;;;;;;6.18;4.20;;;;;;;18.78;67.09;100648.56;5030976;28;20044;-78
2021/09/25 07:06:46;;;;;;;5.93;3.88;;;;;;;18.94;65.87;100646.22;5050258;28;20102;-78
2021/09/25 07:09:11;;;;;;;5.25;3.60;;;;;;;19.00;66.23;100645.97;5050698;28;20095;-78
2021/09/25 07:11:36;;;;;;;7.70;4.53;;;;;;;19.15;65.98;100647.16;5049780;28;20045;-77
2021/09/25 07:14:03;;;;;;;5.10;3.88;;;;;;;19.18;65.09;100651.53;5049713;28;20087;-78
2021/09/25 07:16:29;;;;;;;7.07;4.10;;;;;;;19.14;64.76;100648.06;5022860;28;20379;-77
2021/09/25 07:18:54;;;;;;;6.72;3.63;;;;;;;19.05;65.53;100645.78;5052342;28;20072;-78
2021/09/25 07:21:20;;;;;;;7.40;3.42;;;;;;;19.16;65.57;100651.56;5038561;28;20033;-78
2021/09/25 07:23:45;;;;;;;7.72;4.10;;;;;;;19.24;65.13;100660.16;5051607;28;20033;-78
2021/09/25 07:26:11;;;;;;;7.00;3.55;;;;;;;19.30;65.26;100656.34;5047829;28;20048;-77
2021/09/25 07:28:36;;;;;;;5.40;3.92;;;;;;;19.43;64.61;100662.94;5041171;28;20488;-78
2021/09/25 07:31:03;;;;;;;5.15;3.65;;;;;;;19.44;65.03;100663.81;5048677;28;20086;-78
2021/09/25 07:33:28;;;;;;;5.53;3.90;;;;;;;19.46;64.76;100656.59;5050019;28;20044;-78
2021/09/25 07:35:55;;;;;;;7.45;3.88;;;;;;;19.52;64.40;100667.09;5051672;28;20037;-78
2021/09/25 07:38:21;;;;;;;5.72;3.85;;;;;;;19.62;64.24;100679.16;5053725;28;20483;-78
2021/09/25 07:40:46;;;;;;;5.95;3.13;;;;;;;19.71;64.56;100672.56;5051653;28;20033;-78
2021/09/25 07:43:11;;;;;;;7.15;3.85;;;;;;;19.82;63.24;100680.16;5049902;28;20037;-78
2021/09/25 07:45:37;;;;;;;5.68;3.35;;;;;;;19.78;63.94;100678.53;5050447;28;20040;-78
2021/09/25 07:48:02;;;;;;;5.15;3.88;;;;;;;19.75;63.61;100671.50;5049280;28;20022;-78
2021/09/25 07:50:28;;;;;;;5.53;3.35;;;;;;;19.91;63.34;100677.06;5051156;28;20040;-78
2021/09/25 07:52:56;;;;;;;8.05;3.60;;;;;;;19.89;63.28;100677.16;5039295;28;20060;-78
2021/09/25 07:55:24;;;;;;;4.93;3.38;;;;;;;19.90;62.99;100676.19;5050786;28;20036;-78
2021/09/25 07:57:49;;;;;;;6.72;3.45;;;;;;;20.00;62.30;100673.16;5044817;28;20029;-78
2021/09/25 08:00:16;;;;;;;5.63;3.22;;;;;;;20.09;61.90;100678.97;5049158;28;20121;-79
2021/09/25 08:02:42;;;;;;;5.82;3.53;;;;;;;20.14;62.52;100679.63;5051861;28;20039;-78
2021/09/25 08:05:09;;;;;;;4.38;3.15;;;;;;;20.23;61.60;100681.06;5031157;28;20037;-77
2021/09/25 08:07:35;;;;;;;9.98;3.50;;;;;;;20.37;61.57;100677.75;5051423;28;20052;-79
2021/09/25 08:10:00;;;;;;;5.80;3.50;;;;;;;20.30;61.33;100676.28;5032765;28;20033;-78
2021/09/25 08:12:25;;;;;;;6.70;3.45;;;;;;;20.33;61.16;100685.06;5040928;28;20037;-78
2021/09/25 08:14:51;;;;;;;6.15;3.40;;;;;;;20.26;61.63;100680.91;5050136;28;20037;-78
2021/09/25 08:17:16;;;;;;;4.90;3.28;;;;;;;20.27;60.95;100679.09;5050803;28;20080;-78
2021/09/25 08:19:42;;;;;;;4.82;3.95;;;;;;;20.25;60.68;100679.19;5051667;28;20080;-77
2021/09/25 08:22:07;;;;;;;7.18;3.53;;;;;;;20.25;61.64;100694.38;5049494;28;20048;-78
2021/09/25 08:24:33;;;;;;;7.85;3.92;;;;;;;20.36;60.94;100692.13;5052072;28;20063;-78
2021/09/25 08:26:58;;;;;;;7.15;3.78;;;;;;;20.32;60.72;100683.31;5048179;28;20471;-77
2021/09/25 08:29:24;;;;;;;5.47;3.47;;;;;;;20.45;61.00;100691.69;5034271;28;20040;-78
2021/09/25 08:31:49;;;;;;;7.25;3.78;;;;;;;20.45;60.89;100690.81;5048650;28;20078;-78
2021/09/25 08:34:15;;;;;;;5.40;3.42;;;;;;;20.58;60.43;100692.03;5042679;28;20068;-78
2021/09/25 08:36:41;;;;;;;4.85;3.40;;;;;;;20.65;59.95;100698.00;5049680;28;20064;-78
2021/09/25 08:39:08;;;;;;;4.93;3.70;;;;;;;20.69;59.71;100705.81;5052854;28;20479;-78
2021/09/25 08:41:34;;;;;;;5.07;3.65;;;;;;;20.49;60.27;100703.16;5051965;28;20406;-78
2021/09/25 08:43:59;;;;;;;5.15;3.20;;;;;;;20.57;59.92;100707.28;5050423;28;20047;-78
2021/09/25 08:46:25;;;;;;;5.07;3.30;;;;;;;20.83;59.82;100707.91;5050585;28;20030;-78
2021/09/25 08:48:50;;;;;;;5.95;3.20;;;;;;;20.95;60.03;100701.09;5050928;28;20033;-78
2021/09/25 08:51:16;;;;;;;6.55;3.42;;;;;;;20.97;59.04;100701.88;5050048;28;20045;-79
2021/09/25 08:53:41;;;;;;;5.85;3.42;;;;;;;20.98;59.51;100709.84;5052128;28;20099;-78
2021/09/25 08:56:07;;;;;;;4.97;4.10;;;;;;;21.02;59.42;100706.09;5049580;28;20037;-78
2021/09/25 08:58:32;;;;;;;7.00;3.92;;;;;;;21.05;58.98;100706.91;5052756;28;20072;-79
2021/09/25 09:00:57;;;;;;;6.97;3.97;;;;;;;20.98;58.96;100712.53;5045450;28;20030;-79
2021/09/25 09:03:40;;;;;;;6.10;4.55;;;;;;;20.91;58.48;100708.41;5051727;28;20051;-78
2021/09/25 09:06:18;;;;;;;5.70;4.10;;;;;;;20.80;59.41;100713.38;5048144;28;20061;-78
2021/09/25 09:08:47;;;;;;;6.63;4.00;;;;;;;20.70;60.38;100718.31;5049260;28;20036;-79
2021/09/25 09:11:14;;;;;;;4.93;3.70;;;;;;;20.81;59.86;100715.16;5051780;28;20087;-79
2021/09/25 09:13:43;;;;;;;5.65;4.22;;;;;;;20.88;59.49;100711.25;5048983;28;20033;-78
2021/09/25 09:16:10;;;;;;;5.25;3.63;;;;;;;21.07;59.28;100713.94;5051165;28;20032;-78
2021/09/25 09:18:42;;;;;;;6.00;3.92;;;;;;;21.39;58.73;100709.75;5049492;28;20411;-78
2021/09/25 09:21:11;;;;;;;8.02;4.75;;;;;;;21.31;57.87;100714.59;5051343;28;20539;-78
2021/09/25 09:23:43;;;;;;;7.35;4.30;;;;;;;21.21;57.85;100713.28;5048561;28;20076;-79
2021/09/25 09:26:10;;;;;;;6.13;4.30;;;;;;;21.32;57.90;100710.06;5045022;28;20508;-78
2021/09/25 09:28:37;;;;;;;7.32;4.68;;;;;;;21.27;57.58;100712.13;5045573;28;20052;-79
2021/09/25 09:31:05;;;;;;;6.55;5.00;;;;;;;21.27;57.15;100712.97;5043564;28;20029;-79
2021/09/25 09:33:42;;;;;;;8.05;4.72;;;;;;;21.19;57.45;100721.38;5019274;28;20101;-78
2021/09/25 09:36:11;;;;;;;6.13;3.63;;;;;;;21.24;58.27;100731.91;5045401;28;20045;-78
2021/09/25 09:38:39;;;;;;;7.10;4.38;;;;;;;21.44;57.51;100721.13;5049182;28;20124;-79
2021/09/25 09:41:04;;;;;;;7.85;4.95;;;;;;;21.55;56.71;100722.44;5038837;28;20041;-78
2021/09/25 09:43:29;;;;;;;6.88;4.85;;;;;;;21.50;56.85;100733.38;5032180;28;20282;-79
2021/09/25 09:45:57;;;;;;;7.18;5.03;;;;;;;21.47;56.10;100724.63;5022354;28;20037;-78
2021/09/25 09:48:23;;;;;;;8.63;4.13;;;;;;;21.50;57.03;100719.09;5051686;28;20092;-78
2021/09/25 09:50:50;;;;;;;7.15;4.35;;;;;;;21.64;57.10;100725.53;5047439;28;20088;-78
2021/09/25 09:53:16;;;;;;;5.90;4.40;;;;;;;21.76;56.47;100724.06;5043874;28;20048;-78
2021/09/25 09:55:42;;;;;;;6.30;4.38;;;;;;;21.91;55.91;100724.25;5051307;28;20033;-78
2021/09/25 09:58:07;;;;;;;5.60;4.20;;;;;;;22.00;56.07;100729.16;5030254;28;20021;-79
2021/09/25 10:00:37;;;;;;;6.82;3.60;;;;;;;22.10;55.30;100735.81;5041017;28;20548;-78
2021/09/25 10:03:02;;;;;;;4.85;3.83;;;;;;;22.30;54.78;100727.63;5048525;28;20064;-78
2021/09/25 10:05:28;;;;;;;6.22;3.53;;;;;;;22.34;55.38;100732.84;5049070;28;20029;-79
2021/09/25 10:07:54;;;;;;;5.57;3.42;;;;;;;22.41;55.63;100731.56;5047278;28;20047;-79
2021/09/25 10:10:22;;;;;;;7.20;4.25;;;;;;;22.48;53.88;100720.41;5049138;28;20025;-79
2021/09/25 10:12:48;;;;;;;5.38;3.78;;;;;;;22.29;55.23;100725.00;5048228;28;20377;-78
2021/09/25 10:15:14;;;;;;;6.35;3.90;;;;;;;22.31;54.60;100728.50;5049293;28;20037;-78
2021/09/25 10:17:42;;;;;;;6.15;4.22;;;;;;;22.24;55.52;100722.56;5039066;28;20056;-78
2021/09/25 10:20:08;;;;;;;5.57;3.97;;;;;;;22.33;54.47;100723.03;5048671;28;20167;-79
2021/09/25 10:22:35;;;;;;;4.70;3.38;;;;;;;22.11;55.14;100726.78;5048434;28;20033;-79
2021/09/25 10:25:05;;;;;;;8.05;3.80;;;;;;;21.99;55.75;100722.91;5050148;28;20036;-78
2021/09/25 10:27:45;;;;;;;4.93;3.60;;;;;;;21.96;55.10;100724.91;5049142;28;20230;-79
2021/09/25 10:30:12;;;;;;;5.35;3.70;;;;;;;21.98;55.28;100721.19;5048485;28;20037;-78
2021/09/25 10:32:47;;;;;;;6.18;3.55;;;;;;;21.99;55.66;100725.59;5051234;28;20029;-78
2021/09/25 10:35:26;;;;;;;5.22;3.20;;;;;;;22.01;55.37;100730.91;5043994;28;20052;-77
2021/09/25 10:37:57;;;;;;;6.50;3.40;;;;;;;22.02;56.16;100729.94;5030900;28;20483;-78
2021/09/25 10:40:24;;;;;;;5.63;3.67;;;;;;;21.95;55.44;100728.50;5056302;28;20041;-79
2021/09/25 10:42:57;;;;;;;5.22;2.90;;;;;;;22.02;55.73;100727.25;5056133;28;20044;-79
2021/09/25 10:45:43;;;;;;;6.22;3.80;;;;;;;22.14;55.73;100723.06;5055481;28;20402;-78
2021/09/25 10:48:25;;;;;;;5.82;2.88;;;;;;;22.30;55.37;100724.94;5054803;28;20486;-79
2021/09/25 10:51:11;;;;;;;5.35;3.50;;;;;;;22.39;54.58;100718.19;5054215;28;20033;-77
2021/09/25 10:53:43;;;;;;;6.20;2.83;;;;;;;22.30;55.33;100733.00;5052060;28;20041;-79
2021/09/25 10:56:21;;;;;;;6.13;3.05;;;;;;;22.40;55.51;100729.81;5056440;28;20077;-78
2021/09/25 10:58:54;;;;;;;6.32;3.15;;;;;;;22.37;54.96;100732.66;5057223;28;20067;-79
2021/09/25 11:01:30;;;;;;;4.60;2.65;;;;;;;22.60;54.63;100735.03;5054571;28;20072;-79
2021/09/25 11:03:58;;;;;;;4.60;3.20;;;;;;;22.69;54.73;100733.69;5051228;28;20423;-78
2021/09/25 11:06:45;;;;;;;4.78;2.72;;;;;;;22.68;54.26;100735.47;5055489;28;20510;-78
2021/09/25 11:09:30;;;;;;;4.97;3.17;;;;;;;22.74;55.02;100732.47;5047885;28;20039;-78
2021/09/25 11:12:04;;;;;;;5.15;3.05;;;;;;;22.86;53.76;100730.06;5043997;28;20642;-78
2021/09/25 11:14:40;;;;;;;5.03;2.45;;;;;;;22.89;53.79;100725.38;5054253;28;20033;-78
2021/09/25 11:17:19;;;;;;;4.10;2.70;;;;;;;22.92;53.86;100718.97;5057719;28;20040;-78
2021/09/25 11:19:55;;;;;;;4.57;2.78;;;;;;;23.12;54.02;100723.28;5052719;28;20041;-78
2021/09/25 11:22:43;;;;;;;5.70;3.17;;;;;;;22.87;53.62;100726.41;5055706;28;20049;-78